大阪空港の過去48時間の天気

大阪空港 (Osaka/Intl)

現在時刻: 9/19 07:17 JST (9/18 22:17 UTC) 以下の時間は現地時間です。

過去48時間のMETAR気象情報
時間 風向 風速(m/s) 視程 気温(℃) 湿度(%) 気圧(hPa) 天気現象
19 07:00 不定 1 10km以上 23 83 1012
19 06:00 北西 2 10km以上 21 88 1012
19 05:00 北北西 3 10km以上 22 88 1011
18 20:00 北西 3 10km以上 25 78 1010
18 19:00 北西 4 10km以上 25 83 1009 周辺でしゅう雨
18 18:00 北西 5 10km以上 26 79 1008 周辺でしゅう雨
18 17:00 北北西 6 10km以上 28 70 1007
18 16:00 北西 6 10km以上 29 66 1006
18 15:00 北北西 7 10km以上 30 62 1006
18 14:40 北北西 7 10km以上 32 63 1006
18 14:00 北西 6 10km以上 30 66 1006
18 13:24 北西 5 10km以上 32 63 1005
18 13:00 北北西 6 10km以上 30 66 1005
18 12:00 北西 6 10km以上 29 74 1005
18 11:00 北北西 5 10km以上 29 74 1005
18 10:00 北西 5 10km以上 28 79 1005
18 09:00 北北西 5 10km以上 26 89 1005
18 08:00 北西 5 10km以上 25 94 1004 周辺でしゅう雨
18 07:00 北北東 3 10km以上 25 94 1003
18 06:00 3 10km以上 24 100 1003 弱いしゅう雨
18 05:00 東北東 5 10km以上 23 100 1002 弱いしゅう雨
17 20:00 4 10km以上 24 94 1008 弱いしゅう雨
17 19:00 東北東 3 10km以上 23 94 1008 弱いしゅう雨
17 18:00 東北東 4 10km以上 23 100 1008 弱いしゅう雨
17 17:11 東北東 3 10km以上 24 94 1009 弱いしゅう雨
17 17:00 4 10km以上 24 94 1009 しゅう雨
17 16:00 4 10km以上 25 89 1009
17 15:00 5 10km以上 26 84 1009
17 14:00 東北東 4 10km以上 25 89 1010 弱い雨
17 13:00 東北東 4 10km以上 25 94 1010
17 12:00 3 10km以上 24 94 1011 弱い雨
17 11:00 2 10km以上 24 89 1012 弱い雨
17 10:00 東南東 2 10km以上 24 89 1013 弱いしゅう雨
17 09:00 5 10km以上 25 83 1012 弱いしゅう雨
17 08:00 5 10km以上 25 78 1012 周辺でしゅう雨
RJOO 182200Z VRB01KT 9999 FEW020 BKN045 23/20 Q1012
RJOO 182100Z 32004KT 9999 FEW020 SCT060 21/19 Q1012 RMK 1CU020 3SC060 A2989
RJOO 182000Z 33005KT 9999 FEW020 22/20 Q1011 RMK 1CU020 A2988
RJOO 181100Z 32006KT 290V350 9999 FEW020 BKN035 25/21 Q1010 RMK 1CU020 5CU035 A2983
RJOO 181000Z 31007KT 9999 VCSH FEW010 SCT025 BKN035 25/22 Q1009 RMK 1CU010 3CU025 6CU035 A2980
RJOO 180900Z 31009KT 9999 VCSH FEW020 SCT030 BKN040 26/22 Q1008 RMK 1CU020 3CU030 5CU040 A2977
RJOO 180800Z 33011KT 9999 FEW020 BKN040 28/22 Q1007 RMK 1CU020 5CU040 A2975
RJOO 180700Z 32011KT 9999 FEW020 BKN040 29/22 Q1006 RMK 1CU020 5CU040 A2973
RJOO 180600Z 33013KT 9999 FEW015 BKN040 30/22 Q1006 RMK 1CU015 5CU040 A2972
RJOO 180540Z 34013KT 9999 FEW015 BKN040 32/24 Q1006 RMK 1CU015 5CU040 A2971
RJOO 180500Z 32012KT 9999 FEW010 SCT040 BKN050 30/23 Q1006 RMK 1CU010 3CU040 6SC050 A2971
RJOO 180424Z 31010KT 260V340 9999 FEW010 SCT035 BKN050 32/24 Q1005 RMK 1CU010 3CU035 6SC050 A2970
RJOO 180400Z 33011KT 9999 FEW010 SCT035 BKN050 30/23 Q1005 RMK 1CU010 3CU035 6SC050 A2970
RJOO 180300Z 32011KT 9999 FEW020 BKN035 29/24 Q1005 RMK 1CU020 6CU035 A2970
RJOO 180200Z 34009KT 310V010 9999 FEW020 BKN030 29/24 Q1005 RMK 1CU020 5CU030 A2970
RJOO 180100Z 32010KT 9999 FEW020 SCT045 BKN080 28/24 Q1005 RMK 1CU020 3CU045 5AC080 A2970
RJOO 180000Z 33010KT 9999 FEW005 SCT030 BKN040 26/24 Q1005 RMK 1ST005 3CU030 5CU040 A2968
RJOO 172300Z 32009KT 9999 VCSH FEW005 SCT020 BKN030 25/24 Q1004 RMK 1ST005 3CU020 5CU030 A2966
RJOO 172200Z 03005KT 340V080 9999 FEW005 SCT025 BKN035 25/24 Q1003 RMK 1ST005 3CU025 5CU035 A2963
RJOO 172100Z 36005KT 330V040 9999 -SHRA FEW005 BKN025 24/24 Q1003 RMK 1ST005 6CU025 A2962
RJOO 172000Z 06009KT 9999 -SHRA FEW005 BKN030 23/23 Q1002 RMK 1ST005 5CU030 A2961
RJOO 171100Z 08007KT 040V110 9999 -SHRA FEW005 SCT060 BKN100 24/23 Q1008 RMK 1ST005 3SC060 5AC100 A2977
RJOO 171000Z 07005KT 9999 -SHRA FEW005 SCT060 BKN070 23/22 Q1008 RMK 1ST005 3SC060 5AC070 A2978
RJOO 170900Z 06008KT 9999 -SHRA FEW005 SCT060 BKN080 23/23 Q1008 RMK 1ST005 3SC060 5AC080 A2978
RJOO 170811Z 07006KT 020V090 9999 -SHRA FEW005 SCT040 BKN060 24/23 Q1009 RMK 1ST005 3CU040 5SC060 A2981
RJOO 170800Z 08007KT 9999 R32R/2000N R32L/P2000N SHRA FEW005 SCT040 BKN050 24/23 Q1009 RMK 1ST005 3CU040 5SC050 A2981
RJOO 170700Z 08008KT 060V120 9999 FEW008 SCT030 BKN130 25/23 Q1009 RMK 1ST008 3CU030 7AC130 A2980
RJOO 170600Z 08010KT 9999 FEW008 SCT070 BKN130 26/23 Q1009 RMK 1ST008 4AC070 7AC130 A2981
RJOO 170500Z 07008KT 9999 -RA FEW007 SCT025 BKN050 25/23 Q1010 RMK 1ST007 3CU025 6SC050 A2983
RJOO 170400Z 07008KT 9999 FEW007 SCT020 BKN050 25/24 Q1010 RMK 1ST007 3CU020 5SC050 A2984
RJOO 170300Z 08005KT 9999 -RA FEW007 BKN050 OVC100 24/23 Q1011 RMK 1ST007 5SC050 8AS100 A2988
RJOO 170200Z 10004KT 9999 -RA FEW008 SCT060 OVC100 24/22 Q1012 RMK 1ST008 4SC060 8AS100 A2990
RJOO 170100Z 12003KT 080V180 9999 -SHRA FEW020 SCT030 BKN060 24/22 Q1013 RMK 1CU020 3CU030 6SC060 A2993
RJOO 170000Z 10009KT 9999 -SHRA FEW020 SCT030 BKN070 25/22 Q1012 RMK 1CU020 3CU030 6AC070 A2990
RJOO 162300Z 08010KT 9999 VCSH FEW025 BKN070 25/21 Q1012 RMK 1CU025 6AC070 A2991